Salisbury, Vermont
Current Conditions -  °F | °C
As of 1:15 PM on Friday 28 Nov 2014 (Local Time) from K6B0 Reporting Station
Light Snow Light Snow  
Wind Chill: 28°   Ceiling: 2500
Heat Index: 28°   Visibility: 3mi
Dew Point: 21°   Wind: 0mph
Humidity: 75%   Direction: NA
Pressure: 30.08"   Gusts: NA
Location:  43.9°N, 73.1°W
Report Text: K6B0 281815Z AUTO 00000KT 3SM -SN BKN025 OVC031 M02/M06 A3008 RMK AO2 T10251063
Loading
Personal Weather Stations






























Interactive Weather Map New forecast layout! Learn more

10-Day Weather Forecast

Advertisements
Track Severe Weather on mobile